This is the latest recevied weather packets stored in our database for station/object OK1PHM-12. If no packets are shown the sender has not sent any weather packets the latest 10 day(s).
| Time | Temp. | Humidity | Pressure | Rain* | Wind** | Luminosity | Snow |
|---|---|---|---|---|---|---|---|
| 1777974990 | 24.44° C | 40% | 1009.4 hPa | - | - | - | - |
| 1777974090 | 22.78° C | 42% | 1009.6 hPa | - | - | - | - |
| 1777973189 | 23.33° C | 42% | 1009.5 hPa | - | - | - | - |
| 1777972288 | 22.22° C | 43% | 1009.7 hPa | - | - | - | - |
| 1777971387 | 22.22° C | 44% | 1009.8 hPa | - | - | - | - |
| 1777970486 | 21.67° C | 46% | 1009.9 hPa | - | - | - | - |
| 1777969585 | 21.67° C | 44% | 1010.1 hPa | - | - | - | - |
| 1777968685 | 21.11° C | 47% | 1010.3 hPa | - | - | - | - |
| 1777967784 | 21.11° C | 48% | 1010.4 hPa | - | - | - | - |
| 1777966883 | 20° C | 50% | 1010.3 hPa | - | - | - | - |
| 1777965982 | 20° C | 50% | 1010.5 hPa | - | - | - | - |
| 1777965081 | 20.56° C | 51% | 1010.7 hPa | - | - | - | - |
| 1777964180 | 21.11° C | 51% | 1010.8 hPa | - | - | - | - |
| 1777963280 | 20° C | 53% | 1010.7 hPa | - | - | - | - |
| 1777962379 | 21.11° C | 53% | 1010.8 hPa | - | - | - | - |
| 1777961478 | 20.56° C | 53% | 1010.8 hPa | - | - | - | - |
| 1777960577 | 19.44° C | 59% | 1010.9 hPa | - | - | - | - |
| 1777959676 | 17.22° C | 62% | 1010.7 hPa | - | - | - | - |
| 1777958776 | 16.11° C | 62% | 1010.3 hPa | - | - | - | - |
| 1777957875 | 16.11° C | 61% | 1010.1 hPa | - | - | - | - |
| 1777956974 | 13.89° C | 71% | 1010.2 hPa | - | - | - | - |
| 1777956073 | 13.89° C | 74% | 1010.3 hPa | - | - | - | - |
| 1777955172 | 12.22° C | 76% | 1010.5 hPa | - | - | - | - |
| 1777954271 | 11.67° C | 80% | 1010.5 hPa | - | - | - | - |
| 1777953371 | 11.11° C | 81% | 1010.6 hPa | - | - | - | - |
* Rain since midnight (hover to see other rain measurements)
** Current wind speed in m/s (hover to see current wind gust speed)